Time;durP1;ratioP1;P1;durP2;ratioP2;P2;SDS_P1;SDS_P2;PMS_P1;PMS_P2;Temp;Humidity;BMP_temperature;BMP_pressure;BME280_temperature;BME280_humidity;BME280_pressure;Samples;Min_cycle;Max_cycle;Signal;HPM_P1;HPM_P2
2022/07/11 00:00:07;;;;;;;3.50;1.55;;;;;;;;;;507692;29;1299;-85
2022/07/11 00:00:23;;;;;;;2.83;1.30;;;;;;;;;;504692;29;1294;-86
2022/07/11 00:00:39;;;;;;;3.10;1.50;;;;;;;;;;508274;29;1561;-85
2022/07/11 00:00:54;;;;;;;4.13;1.70;;;;;;;;;;507254;29;802;-86
2022/07/11 00:01:10;;;;;;;3.87;1.70;;;;;;;;;;507333;29;842;-86
2022/07/11 00:01:25;;;;;;;3.10;1.60;;;;;;;;;;504491;29;1303;-86
2022/07/11 00:01:40;;;;;;;3.20;1.65;;;;;;;;;;505314;29;1327;-86
2022/07/11 00:01:57;;;;;;;3.07;1.60;;;;;;;;;;503373;29;1409;-86
2022/07/11 00:02:12;;;;;;;2.65;1.50;;;;;;;;;;503753;29;1269;-86
2022/07/11 00:02:28;;;;;;;2.83;1.45;;;;;;;;;;507216;29;1356;-86
2022/07/11 00:02:43;;;;;;;3.47;1.57;;;;;;;;;;507182;29;1353;-86
2022/07/11 00:02:59;;;;;;;3.90;1.60;;;;;;;;;;509010;29;1449;-86
2022/07/11 00:03:14;;;;;;;3.60;1.60;;;;;;;;;;509743;29;1364;-86
2022/07/11 00:03:30;;;;;;;3.20;1.60;;;;;;;;;;509561;29;885;-86
2022/07/11 00:03:45;;;;;;;3.47;1.58;;;;;;;;;;508126;29;866;-86
2022/07/11 00:04:00;;;;;;;3.17;1.50;;;;;;;;;;509682;29;1428;-86
2022/07/11 00:04:16;;;;;;;2.80;1.52;;;;;;;;;;509836;29;1272;-86
2022/07/11 00:04:32;;;;;;;3.97;1.67;;;;;;;;;;510204;29;1279;-83
2022/07/11 00:04:47;;;;;;;3.90;1.70;;;;;;;;;;510389;29;933;-83
2022/07/11 00:05:03;;;;;;;2.90;1.50;;;;;;;;;;510823;29;837;-83
2022/07/11 00:05:20;;;;;;;2.90;1.45;;;;;;;;;;512134;29;1075;-82
2022/07/11 00:05:35;;;;;;;3.10;1.60;;;;;;;;;;512048;29;868;-82
2022/07/11 00:05:50;;;;;;;3.97;1.53;;;;;;;;;;511486;29;884;-82
2022/07/11 00:06:06;;;;;;;4.13;1.63;;;;;;;;;;510192;29;876;-82
2022/07/11 00:06:21;;;;;;;3.20;1.60;;;;;;;;;;510196;29;801;-83
2022/07/11 00:06:36;;;;;;;2.78;1.40;;;;;;;;;;511973;28;1200;-83
2022/07/11 00:06:52;;;;;;;4.17;1.60;;;;;;;;;;510065;29;1275;-82
2022/07/11 00:07:08;;;;;;;3.97;1.60;;;;;;;;;;510192;29;920;-82
2022/07/11 00:07:23;;;;;;;2.83;1.40;;;;;;;;;;510138;29;1280;-83
2022/07/11 00:07:39;;;;;;;2.70;1.50;;;;;;;;;;510235;29;817;-83
2022/07/11 00:07:54;;;;;;;3.58;1.60;;;;;;;;;;510400;29;869;-83
2022/07/11 00:08:09;;;;;;;4.53;1.70;;;;;;;;;;510350;29;1177;-83
2022/07/11 00:08:25;;;;;;;4.10;1.70;;;;;;;;;;509949;29;861;-83
2022/07/11 00:08:40;;;;;;;4.90;1.80;;;;;;;;;;508911;29;809;-83
2022/07/11 00:08:55;;;;;;;4.60;1.70;;;;;;;;;;510046;29;924;-83
2022/07/11 00:09:11;;;;;;;4.77;1.57;;;;;;;;;;510449;29;1015;-83
2022/07/11 00:09:27;;;;;;;5.20;1.70;;;;;;;;;;510120;29;1261;-83
2022/07/11 00:09:42;;;;;;;3.85;1.60;;;;;;;;;;508017;29;1412;-83
2022/07/11 00:09:58;;;;;;;3.00;1.40;;;;;;;;;;508190;29;881;-83
2022/07/11 00:10:13;;;;;;;3.30;1.50;;;;;;;;;;508171;29;1095;-82
2022/07/11 00:10:29;;;;;;;3.42;1.50;;;;;;;;;;508231;29;908;-83
2022/07/11 00:10:46;;;;;;;2.90;1.50;;;;;;;;;;508251;29;841;-83
2022/07/11 00:11:02;;;;;;;3.05;1.60;;;;;;;;;;506113;29;1274;-83
2022/07/11 00:11:17;;;;;;;3.20;1.60;;;;;;;;;;507042;29;984;-82
2022/07/11 00:11:32;;;;;;;3.60;1.63;;;;;;;;;;510078;29;1289;-82
2022/07/11 00:11:48;;;;;;;3.22;1.50;;;;;;;;;;509994;29;1173;-82
2022/07/11 00:12:04;;;;;;;2.70;1.40;;;;;;;;;;510196;29;900;-83
2022/07/11 00:12:26;;;;;;;2.30;1.45;;;;;;;;;;510118;29;1355;-82
2022/07/11 00:12:41;;;;;;;3.80;1.50;;;;;;;;;;510167;29;959;-83
2022/07/11 00:12:57;;;;;;;2.85;1.50;;;;;;;;;;510137;29;1027;-83
2022/07/11 00:13:12;;;;;;;2.43;1.53;;;;;;;;;;510109;29;949;-83
2022/07/11 00:13:28;;;;;;;3.27;1.60;;;;;;;;;;511313;29;1256;-83
2022/07/11 00:13:43;;;;;;;3.83;1.50;;;;;;;;;;512082;29;928;-82
2022/07/11 00:13:58;;;;;;;3.07;1.40;;;;;;;;;;512179;28;1185;-82
2022/07/11 00:14:15;;;;;;;2.22;1.45;;;;;;;;;;509111;29;1253;-82
2022/07/11 00:14:30;;;;;;;2.70;1.50;;;;;;;;;;508052;29;1222;-82
2022/07/11 00:14:46;;;;;;;2.70;1.40;;;;;;;;;;508234;29;980;-83
2022/07/11 00:15:02;;;;;;;2.70;1.40;;;;;;;;;;508202;29;1063;-83
2022/07/11 00:15:17;;;;;;;3.35;1.60;;;;;;;;;;508545;29;1021;-83
2022/07/11 00:15:32;;;;;;;3.37;1.63;;;;;;;;;;510223;29;869;-83
2022/07/11 00:15:48;;;;;;;2.55;1.60;;;;;;;;;;510071;29;1126;-83
2022/07/11 00:16:04;;;;;;;2.37;1.60;;;;;;;;;;510607;29;857;-83
2022/07/11 00:16:19;;;;;;;2.67;1.50;;;;;;;;;;512080;29;943;-83
2022/07/11 00:16:34;;;;;;;2.63;1.50;;;;;;;;;;512403;28;1173;-82
2022/07/11 00:16:51;;;;;;;2.25;1.50;;;;;;;;;;512204;29;840;-82
2022/07/11 00:17:10;;;;;;;2.75;1.60;;;;;;;;;;512093;29;1096;-82
2022/07/11 00:17:26;;;;;;;3.35;1.70;;;;;;;;;;509907;29;1263;-83
2022/07/11 00:17:41;;;;;;;2.70;1.53;;;;;;;;;;510050;29;1910;-83
2022/07/11 00:17:57;;;;;;;3.07;1.50;;;;;;;;;;510133;29;1078;-83
2022/07/11 00:18:12;;;;;;;3.80;1.50;;;;;;;;;;509914;29;1310;-83
2022/07/11 00:18:27;;;;;;;3.63;1.50;;;;;;;;;;508965;29;1373;-83
2022/07/11 00:18:43;;;;;;;3.20;1.60;;;;;;;;;;508147;29;904;-82
2022/07/11 00:18:58;;;;;;;2.83;1.65;;;;;;;;;;508329;29;1332;-83
2022/07/11 00:19:14;;;;;;;2.60;1.50;;;;;;;;;;510486;29;1412;-83
2022/07/11 00:19:29;;;;;;;3.47;1.50;;;;;;;;;;510316;29;1176;-83
2022/07/11 00:19:45;;;;;;;3.57;1.60;;;;;;;;;;510245;29;1432;-83
2022/07/11 00:20:01;;;;;;;2.95;1.70;;;;;;;;;;510218;29;1341;-83
2022/07/11 00:20:16;;;;;;;3.40;1.80;;;;;;;;;;508272;29;1182;-83
2022/07/11 00:20:32;;;;;;;4.10;1.70;;;;;;;;;;508109;29;1166;-83
2022/07/11 00:20:47;;;;;;;5.03;1.70;;;;;;;;;;508162;29;945;-83
2022/07/11 00:21:03;;;;;;;4.53;1.90;;;;;;;;;;508050;29;1280;-83
2022/07/11 00:21:19;;;;;;;3.00;1.70;;;;;;;;;;510261;29;1205;-85
2022/07/11 00:21:35;;;;;;;3.83;1.50;;;;;;;;;;509911;29;939;-85
2022/07/11 00:21:52;;;;;;;5.03;1.60;;;;;;;;;;507820;29;1406;-85
2022/07/11 00:22:09;;;;;;;4.00;1.70;;;;;;;;;;506272;29;944;-85
2022/07/11 00:22:24;;;;;;;3.10;1.67;;;;;;;;;;507217;29;948;-85
2022/07/11 00:22:39;;;;;;;4.03;1.67;;;;;;;;;;508428;29;798;-85
2022/07/11 00:22:55;;;;;;;3.90;1.57;;;;;;;;;;510107;29;1456;-85
2022/07/11 00:23:10;;;;;;;2.95;1.50;;;;;;;;;;510298;29;1011;-85
2022/07/11 00:23:26;;;;;;;3.33;1.63;;;;;;;;;;510143;29;1297;-85
2022/07/11 00:23:41;;;;;;;3.47;1.80;;;;;;;;;;510005;29;1190;-85
2022/07/11 00:23:56;;;;;;;3.80;1.70;;;;;;;;;;510335;29;829;-85
2022/07/11 00:24:12;;;;;;;4.33;1.63;;;;;;;;;;510618;29;886;-85
2022/07/11 00:24:28;;;;;;;3.43;1.60;;;;;;;;;;509912;29;1422;-85
2022/07/11 00:24:43;;;;;;;3.40;1.60;;;;;;;;;;510236;29;853;-85
2022/07/11 00:24:59;;;;;;;4.00;1.77;;;;;;;;;;510195;29;860;-85
2022/07/11 00:25:14;;;;;;;3.03;1.42;;;;;;;;;;509745;29;1318;-85
2022/07/11 00:25:29;;;;;;;3.30;1.50;;;;;;;;;;508551;29;905;-85
2022/07/11 00:25:45;;;;;;;4.00;1.70;;;;;;;;;;510197;29;1189;-85
2022/07/11 00:26:00;;;;;;;3.30;1.60;;;;;;;;;;508141;29;1344;-85
2022/07/11 00:26:16;;;;;;;3.60;1.80;;;;;;;;;;507951;29;870;-85
2022/07/11 00:26:32;;;;;;;3.42;1.70;;;;;;;;;;506106;29;928;-85
2022/07/11 00:26:48;;;;;;;2.83;1.50;;;;;;;;;;506172;29;878;-85
2022/07/11 00:27:05;;;;;;;2.90;1.60;;;;;;;;;;507945;29;1396;-85
2022/07/11 00:27:20;;;;;;;2.92;1.60;;;;;;;;;;508207;29;979;-85
2022/07/11 00:27:36;;;;;;;2.87;1.60;;;;;;;;;;508915;29;894;-85
2022/07/11 00:27:51;;;;;;;3.22;1.65;;;;;;;;;;510080;29;1174;-85
2022/07/11 00:28:07;;;;;;;2.83;1.50;;;;;;;;;;510236;29;908;-85
2022/07/11 00:28:22;;;;;;;4.00;1.60;;;;;;;;;;510017;29;1265;-85
2022/07/11 00:28:38;;;;;;;5.00;1.80;;;;;;;;;;510078;29;1317;-85
2022/07/11 00:28:53;;;;;;;3.80;1.70;;;;;;;;;;510291;29;805;-85
2022/07/11 00:29:09;;;;;;;3.50;1.70;;;;;;;;;;510207;29;920;-85
2022/07/11 00:29:25;;;;;;;3.85;1.65;;;;;;;;;;510266;29;949;-85
2022/07/11 00:29:40;;;;;;;3.45;1.48;;;;;;;;;;510061;29;1244;-85
2022/07/11 00:29:56;;;;;;;2.70;1.40;;;;;;;;;;510228;29;845;-85
2022/07/11 00:30:12;;;;;;;2.95;1.48;;;;;;;;;;510069;29;1026;-85
2022/07/11 00:30:27;;;;;;;3.03;1.50;;;;;;;;;;510190;29;893;-85
2022/07/11 00:30:43;;;;;;;2.97;1.50;;;;;;;;;;510118;29;829;-85
2022/07/11 00:30:58;;;;;;;3.95;1.52;;;;;;;;;;510142;29;853;-85
2022/07/11 00:31:14;;;;;;;4.17;1.60;;;;;;;;;;510194;29;1018;-85
2022/07/11 00:31:29;;;;;;;3.72;1.55;;;;;;;;;;512015;28;1218;-85
2022/07/11 00:31:44;;;;;;;3.53;1.67;;;;;;;;;;512069;29;1024;-85
2022/07/11 00:32:00;;;;;;;3.30;1.73;;;;;;;;;;512360;29;806;-85
2022/07/11 00:32:15;;;;;;;2.88;1.63;;;;;;;;;;512101;29;857;-85
2022/07/11 00:32:31;;;;;;;3.20;1.63;;;;;;;;;;511913;29;881;-85
2022/07/11 00:32:47;;;;;;;3.20;1.50;;;;;;;;;;511897;29;996;-85
2022/07/11 00:33:02;;;;;;;2.55;1.50;;;;;;;;;;512013;29;868;-85
2022/07/11 00:33:18;;;;;;;2.47;1.43;;;;;;;;;;511827;29;1027;-85
2022/07/11 00:33:34;;;;;;;2.53;1.40;;;;;;;;;;510205;29;952;-85
2022/07/11 00:33:49;;;;;;;2.43;1.43;;;;;;;;;;510411;29;817;-85
2022/07/11 00:34:04;;;;;;;3.03;1.60;;;;;;;;;;510377;29;817;-85
2022/07/11 00:34:21;;;;;;;3.10;1.43;;;;;;;;;;512082;29;1583;-85
2022/07/11 00:34:36;;;;;;;3.10;1.50;;;;;;;;;;512202;29;897;-85
2022/07/11 00:34:51;;;;;;;2.63;1.53;;;;;;;;;;510048;29;1263;-85
2022/07/11 00:35:07;;;;;;;2.23;1.30;;;;;;;;;;509999;29;782;-85
2022/07/11 00:35:23;;;;;;;2.05;1.40;;;;;;;;;;510032;29;881;-85
2022/07/11 00:35:38;;;;;;;2.20;1.58;;;;;;;;;;509863;29;1474;-85
2022/07/11 00:35:53;;;;;;;2.80;1.60;;;;;;;;;;509971;29;1189;-85
2022/07/11 00:36:09;;;;;;;2.60;1.50;;;;;;;;;;509966;29;1206;-85
2022/07/11 00:36:25;;;;;;;2.70;1.50;;;;;;;;;;508022;29;1410;-85
2022/07/11 00:36:40;;;;;;;3.17;1.50;;;;;;;;;;508403;29;1403;-85
2022/07/11 00:36:56;;;;;;;3.33;1.50;;;;;;;;;;510049;29;1388;-85
2022/07/11 00:37:11;;;;;;;3.33;1.50;;;;;;;;;;510152;29;1211;-85
2022/07/11 00:37:26;;;;;;;3.03;1.50;;;;;;;;;;509857;29;898;-85
2022/07/11 00:37:42;;;;;;;3.23;1.53;;;;;;;;;;509437;29;1974;-85
2022/07/11 00:37:57;;;;;;;3.08;1.55;;;;;;;;;;507794;29;1326;-84
2022/07/11 00:38:13;;;;;;;2.93;1.60;;;;;;;;;;508320;29;814;-85
2022/07/11 00:38:29;;;;;;;3.25;1.60;;;;;;;;;;509803;29;1202;-84
2022/07/11 00:38:44;;;;;;;3.00;1.50;;;;;;;;;;510021;29;901;-85
2022/07/11 00:39:00;;;;;;;3.17;1.60;;;;;;;;;;510269;29;1190;-85
2022/07/11 00:39:15;;;;;;;3.45;1.60;;;;;;;;;;511840;28;1103;-85
2022/07/11 00:39:31;;;;;;;3.50;1.60;;;;;;;;;;511875;29;818;-85
2022/07/11 00:39:46;;;;;;;3.08;1.50;;;;;;;;;;511504;29;1268;-85
2022/07/11 00:40:02;;;;;;;2.17;1.40;;;;;;;;;;507947;29;1190;-85
2022/07/11 00:40:17;;;;;;;2.80;1.45;;;;;;;;;;508481;29;1265;-85
2022/07/11 00:40:33;;;;;;;3.80;1.50;;;;;;;;;;509995;29;1111;-85
2022/07/11 00:40:48;;;;;;;3.38;1.50;;;;;;;;;;510155;29;901;-85
2022/07/11 00:41:04;;;;;;;2.50;1.50;;;;;;;;;;510146;29;1050;-85
2022/07/11 00:41:19;;;;;;;2.47;1.60;;;;;;;;;;510184;29;845;-85
2022/07/11 00:41:35;;;;;;;2.70;1.50;;;;;;;;;;509978;29;1194;-85
2022/07/11 00:41:51;;;;;;;3.67;1.50;;;;;;;;;;510472;29;995;-85
2022/07/11 00:42:06;;;;;;;4.50;1.60;;;;;;;;;;512063;29;864;-85
2022/07/11 00:42:21;;;;;;;3.72;1.70;;;;;;;;;;511983;29;921;-85
2022/07/11 00:42:38;;;;;;;2.90;1.70;;;;;;;;;;510039;29;1271;-85
2022/07/11 00:42:53;;;;;;;2.47;1.48;;;;;;;;;;510143;29;900;-85
2022/07/11 00:43:08;;;;;;;1.92;1.30;;;;;;;;;;510153;29;1058;-85
2022/07/11 00:43:31;;;;;;;1.93;1.30;;;;;;;;;;508385;29;1323;-85
2022/07/11 00:43:55;;;;;;;2.67;1.40;;;;;;;;;;510134;29;907;-86
2022/07/11 00:44:12;;;;;;;4.47;1.75;;;;;;;;;;510033;29;998;-84
2022/07/11 00:44:27;;;;;;;3.83;1.63;;;;;;;;;;509934;29;1028;-84
2022/07/11 00:44:43;;;;;;;3.60;1.70;;;;;;;;;;507927;29;1296;-84
2022/07/11 00:44:58;;;;;;;3.70;1.70;;;;;;;;;;508043;29;1145;-84
2022/07/11 00:45:13;;;;;;;3.20;1.50;;;;;;;;;;507986;29;999;-84
2022/07/11 00:45:29;;;;;;;3.77;1.50;;;;;;;;;;508173;29;943;-84
2022/07/11 00:45:48;;;;;;;3.23;1.60;;;;;;;;;;508116;29;1267;-85
2022/07/11 00:46:04;;;;;;;2.15;1.50;;;;;;;;;;508199;29;1317;-85
2022/07/11 00:46:20;;;;;;;2.58;1.58;;;;;;;;;;508247;29;1103;-85
2022/07/11 00:46:35;;;;;;;3.00;1.55;;;;;;;;;;509057;29;1322;-85
2022/07/11 00:46:51;;;;;;;2.50;1.40;;;;;;;;;;510049;29;1007;-85
2022/07/11 00:47:06;;;;;;;3.45;1.50;;;;;;;;;;509956;29;911;-85
2022/07/11 00:47:22;;;;;;;4.23;1.60;;;;;;;;;;509829;29;1182;-85
2022/07/11 00:47:37;;;;;;;3.30;1.40;;;;;;;;;;509210;29;1319;-85
2022/07/11 00:47:53;;;;;;;3.58;1.50;;;;;;;;;;508052;29;888;-84
2022/07/11 00:48:08;;;;;;;3.70;1.50;;;;;;;;;;508155;29;1190;-84
2022/07/11 00:48:23;;;;;;;2.97;1.40;;;;;;;;;;508478;29;948;-84
2022/07/11 00:48:39;;;;;;;2.97;1.40;;;;;;;;;;510170;29;868;-84
2022/07/11 00:48:55;;;;;;;2.83;1.50;;;;;;;;;;510160;29;1294;-84
2022/07/11 00:49:10;;;;;;;2.70;1.60;;;;;;;;;;509883;29;960;-84
2022/07/11 00:49:26;;;;;;;2.83;1.60;;;;;;;;;;508215;29;869;-84
2022/07/11 00:49:41;;;;;;;3.60;1.60;;;;;;;;;;508099;29;1282;-84
2022/07/11 00:49:57;;;;;;;3.55;1.60;;;;;;;;;;506424;29;1329;-84
2022/07/11 00:50:14;;;;;;;3.83;1.70;;;;;;;;;;508452;29;1099;-84
2022/07/11 00:50:30;;;;;;;3.78;1.70;;;;;;;;;;508008;29;876;-84
2022/07/11 00:50:46;;;;;;;3.13;1.60;;;;;;;;;;508599;29;920;-85
2022/07/11 00:51:03;;;;;;;3.05;1.60;;;;;;;;;;509928;29;924;-84
2022/07/11 00:51:20;;;;;;;2.92;1.50;;;;;;;;;;510035;29;985;-84
2022/07/11 00:51:36;;;;;;;2.92;1.50;;;;;;;;;;509763;29;1343;-84
2022/07/11 00:51:54;;;;;;;3.40;1.50;;;;;;;;;;511119;29;984;-84
2022/07/11 00:52:09;;;;;;;3.97;1.50;;;;;;;;;;512015;29;1308;-88
2022/07/11 00:52:25;;;;;;;3.50;1.55;;;;;;;;;;509774;29;1325;-89
2022/07/11 00:52:41;;;;;;;2.67;1.60;;;;;;;;;;510061;29;1205;-89
2022/07/11 00:52:57;;;;;;;2.17;1.48;;;;;;;;;;509898;29;1222;-90
2022/07/11 00:53:14;;;;;;;3.13;1.50;;;;;;;;;;509794;29;1269;-88
2022/07/11 00:53:30;;;;;;;3.75;1.60;;;;;;;;;;507897;29;1339;-89
2022/07/11 00:53:49;;;;;;;3.45;1.58;;;;;;;;;;509939;29;1249;-89
2022/07/11 00:54:07;;;;;;;3.00;1.50;;;;;;;;;;508019;29;1277;-88
2022/07/11 00:54:23;;;;;;;2.60;1.40;;;;;;;;;;510167;29;1402;-89
2022/07/11 00:54:38;;;;;;;2.97;1.60;;;;;;;;;;506084;29;1284;-89
2022/07/11 00:54:54;;;;;;;3.00;1.63;;;;;;;;;;506191;29;1037;-89
2022/07/11 00:55:11;;;;;;;3.78;1.63;;;;;;;;;;506168;29;1347;-88
2022/07/11 00:55:28;;;;;;;3.45;1.42;;;;;;;;;;506458;29;1418;-88
2022/07/11 00:55:44;;;;;;;2.33;1.30;;;;;;;;;;506191;29;1023;-87
2022/07/11 00:56:00;;;;;;;2.58;1.30;;;;;;;;;;507480;29;951;-89
2022/07/11 00:56:16;;;;;;;2.25;1.23;;;;;;;;;;507054;29;1206;-88
2022/07/11 00:56:32;;;;;;;1.87;1.23;;;;;;;;;;508818;29;1198;-89
2022/07/11 00:56:47;;;;;;;2.83;1.65;;;;;;;;;;507981;29;1276;-89
2022/07/11 00:57:03;;;;;;;2.65;1.63;;;;;;;;;;506996;29;953;-89
2022/07/11 00:57:19;;;;;;;2.15;1.40;;;;;;;;;;506728;29;1278;-89
2022/07/11 00:57:36;;;;;;;2.37;1.50;;;;;;;;;;508044;29;1154;-89
2022/07/11 00:57:52;;;;;;;3.10;1.58;;;;;;;;;;507905;29;1915;-89
2022/07/11 00:58:07;;;;;;;3.20;1.40;;;;;;;;;;508965;29;1118;-89
2022/07/11 00:58:24;;;;;;;3.40;1.50;;;;;;;;;;509980;29;1323;-89
2022/07/11 00:58:39;;;;;;;3.63;1.60;;;;;;;;;;510984;29;1267;-89
2022/07/11 00:58:56;;;;;;;2.95;1.40;;;;;;;;;;511948;29;1289;-89
2022/07/11 00:59:13;;;;;;;2.90;1.40;;;;;;;;;;509928;29;1208;-89
2022/07/11 00:59:29;;;;;;;2.65;1.40;;;;;;;;;;508998;29;924;-88
2022/07/11 00:59:46;;;;;;;2.13;1.40;;;;;;;;;;505853;29;1292;-89
2022/07/11 01:00:02;;;;;;;2.72;1.50;;;;;;;;;;508025;29;1251;-89
2022/07/11 01:00:18;;;;;;;4.10;1.60;;;;;;;;;;506061;29;1397;-89
2022/07/11 01:00:33;;;;;;;2.77;1.37;;;;;;;;;;506086;29;1447;-89
2022/07/11 01:00:49;;;;;;;1.88;1.27;;;;;;;;;;507108;29;817;-88
2022/07/11 01:01:05;;;;;;;2.50;1.50;;;;;;;;;;508087;29;1027;-89
2022/07/11 01:01:21;;;;;;;2.83;1.52;;;;;;;;;;508041;29;1210;-89
2022/07/11 01:01:39;;;;;;;3.50;1.60;;;;;;;;;;508186;29;1270;-88
2022/07/11 01:01:54;;;;;;;4.47;1.60;;;;;;;;;;508150;29;1388;-88
2022/07/11 01:02:11;;;;;;;3.78;1.50;;;;;;;;;;508838;29;1295;-89
2022/07/11 01:02:26;;;;;;;2.65;1.48;;;;;;;;;;510999;29;904;-89
2022/07/11 01:02:42;;;;;;;2.97;1.40;;;;;;;;;;511885;29;1205;-89
2022/07/11 01:02:57;;;;;;;3.40;1.60;;;;;;;;;;511941;29;757;-89
2022/07/11 01:03:13;;;;;;;3.63;1.67;;;;;;;;;;511162;29;1353;-88
2022/07/11 01:03:29;;;;;;;3.77;1.60;;;;;;;;;;512068;29;1148;-88
2022/07/11 01:03:45;;;;;;;3.95;1.52;;;;;;;;;;511938;29;1424;-89
2022/07/11 01:04:02;;;;;;;4.07;1.60;;;;;;;;;;511752;29;1197;-88
2022/07/11 01:04:19;;;;;;;3.47;1.52;;;;;;;;;;511843;29;904;-88
2022/07/11 01:04:34;;;;;;;2.75;1.35;;;;;;;;;;510093;29;1367;-88
2022/07/11 01:04:50;;;;;;;3.17;1.42;;;;;;;;;;509852;29;895;-90
2022/07/11 01:05:06;;;;;;;3.10;1.50;;;;;;;;;;509926;29;1233;-89
2022/07/11 01:05:21;;;;;;;2.60;1.50;;;;;;;;;;508954;29;1336;-89
2022/07/11 01:05:37;;;;;;;2.93;1.60;;;;;;;;;;506871;29;1214;-89
2022/07/11 01:05:53;;;;;;;3.10;1.50;;;;;;;;;;507523;29;1205;-89
2022/07/11 01:06:09;;;;;;;3.25;1.40;;;;;;;;;;506158;29;1016;-89
2022/07/11 01:06:25;;;;;;;2.45;1.40;;;;;;;;;;508195;29;1373;-89
2022/07/11 01:06:40;;;;;;;2.40;1.50;;;;;;;;;;508106;29;1328;-88
2022/07/11 01:06:56;;;;;;;2.65;1.50;;;;;;;;;;510037;29;1380;-89
2022/07/11 01:07:11;;;;;;;4.03;1.60;;;;;;;;;;508092;29;1221;-89
2022/07/11 01:07:29;;;;;;;4.83;1.50;;;;;;;;;;508122;29;1174;-89
2022/07/11 01:07:45;;;;;;;3.80;1.45;;;;;;;;;;508169;29;1048;-89
2022/07/11 01:08:00;;;;;;;2.47;1.50;;;;;;;;;;508125;29;1206;-89
2022/07/11 01:08:16;;;;;;;3.10;1.50;;;;;;;;;;508111;29;1302;-88
2022/07/11 01:08:32;;;;;;;3.28;1.40;;;;;;;;;;508016;29;1310;-88
2022/07/11 01:08:48;;;;;;;2.83;1.60;;;;;;;;;;508085;29;853;-89
2022/07/11 01:09:03;;;;;;;2.73;1.63;;;;;;;;;;508808;29;1326;-88
2022/07/11 01:09:19;;;;;;;2.67;1.50;;;;;;;;;;510901;29;781;-88
2022/07/11 01:09:34;;;;;;;3.43;1.67;;;;;;;;;;510002;29;1491;-89
2022/07/11 01:09:50;;;;;;;3.10;1.50;;;;;;;;;;509751;29;1284;-89
2022/07/11 01:10:06;;;;;;;2.95;1.42;;;;;;;;;;508106;29;1425;-88
2022/07/11 01:10:22;;;;;;;2.70;1.50;;;;;;;;;;508003;29;1194;-89
2022/07/11 01:10:38;;;;;;;2.35;1.40;;;;;;;;;;508038;29;1280;-88
2022/07/11 01:10:53;;;;;;;3.05;1.52;;;;;;;;;;510088;29;1395;-88
2022/07/11 01:11:12;;;;;;;3.70;1.67;;;;;;;;;;510021;29;1271;-89
2022/07/11 01:11:28;;;;;;;3.83;1.70;;;;;;;;;;510107;29;1008;-89
2022/07/11 01:11:44;;;;;;;2.50;1.55;;;;;;;;;;509989;29;1260;-89
2022/07/11 01:12:00;;;;;;;2.40;1.40;;;;;;;;;;509847;29;1200;-88
2022/07/11 01:12:17;;;;;;;2.38;1.40;;;;;;;;;;509049;29;841;-89
2022/07/11 01:12:32;;;;;;;2.45;1.45;;;;;;;;;;506934;29;1038;-88
2022/07/11 01:12:48;;;;;;;3.67;1.50;;;;;;;;;;507815;29;1181;-88
2022/07/11 01:13:03;;;;;;;3.80;1.50;;;;;;;;;;507922;29;1245;-88
2022/07/11 01:13:19;;;;;;;3.63;1.60;;;;;;;;;;509624;29;1459;-89
2022/07/11 01:13:34;;;;;;;3.83;1.67;;;;;;;;;;509041;29;850;-88
2022/07/11 01:13:51;;;;;;;3.53;1.53;;;;;;;;;;508273;29;1315;-88
2022/07/11 01:14:06;;;;;;;3.95;1.50;;;;;;;;;;509808;29;905;-88
2022/07/11 01:14:21;;;;;;;3.73;1.60;;;;;;;;;;509727;29;1176;-88
2022/07/11 01:14:37;;;;;;;2.70;1.50;;;;;;;;;;509831;29;1256;-88
2022/07/11 01:14:53;;;;;;;2.20;1.40;;;;;;;;;;511902;29;1154;-88
2022/07/11 01:15:10;;;;;;;2.35;1.40;;;;;;;;;;509438;29;1266;-89
2022/07/11 01:15:25;;;;;;;2.92;1.52;;;;;;;;;;505954;29;1396;-88
2022/07/11 01:15:41;;;;;;;3.60;1.57;;;;;;;;;;506022;29;958;-88
2022/07/11 01:16:13;;;;;;;4.32;1.60;;;;;;;;;;507932;29;1214;-89
2022/07/11 01:16:29;;;;;;;3.17;1.60;;;;;;;;;;507161;29;1284;-88
2022/07/11 01:16:45;;;;;;;3.50;1.40;;;;;;;;;;506743;29;1367;-89
2022/07/11 01:17:00;;;;;;;3.63;1.40;;;;;;;;;;506000;29;1284;-88
2022/07/11 01:17:15;;;;;;;3.63;1.50;;;;;;;;;;506535;29;818;-89
2022/07/11 01:17:31;;;;;;;2.70;1.50;;;;;;;;;;507912;29;1206;-88
2022/07/11 01:17:46;;;;;;;2.70;1.40;;;;;;;;;;508247;29;1946;-89
2022/07/11 01:18:03;;;;;;;2.80;1.40;;;;;;;;;;509834;29;1371;-89
2022/07/11 01:18:18;;;;;;;3.17;1.30;;;;;;;;;;509319;29;1340;-90
2022/07/11 01:18:34;;;;;;;3.23;1.30;;;;;;;;;;507851;29;1277;-89
2022/07/11 01:18:54;;;;;;;2.33;1.40;;;;;;;;;;508752;29;818;-89
2022/07/11 01:19:09;;;;;;;2.72;1.38;;;;;;;;;;510005;29;852;-89
2022/07/11 01:19:25;;;;;;;3.53;1.50;;;;;;;;;;509944;29;869;-88
2022/07/11 01:19:40;;;;;;;3.20;1.60;;;;;;;;;;509901;29;1261;-88
2022/07/11 01:19:56;;;;;;;2.23;1.40;;;;;;;;;;510843;29;1388;-89
2022/07/11 01:20:11;;;;;;;2.65;1.60;;;;;;;;;;510895;29;1376;-88
2022/07/11 01:20:27;;;;;;;3.30;1.50;;;;;;;;;;511075;29;833;-89
2022/07/11 01:20:43;;;;;;;2.92;1.40;;;;;;;;;;511885;29;968;-88
2022/07/11 01:20:58;;;;;;;2.80;1.40;;;;;;;;;;509853;29;1305;-88
2022/07/11 01:21:19;;;;;;;3.63;1.40;;;;;;;;;;509965;29;1046;-88
2022/07/11 01:21:39;;;;;;;3.53;1.58;;;;;;;;;;509963;29;852;-89
2022/07/11 01:21:58;;;;;;;3.88;1.50;;;;;;;;;;509875;29;1376;-89
2022/07/11 01:22:20;;;;;;;3.65;1.50;;;;;;;;;;509962;29;876;-89
2022/07/11 01:22:41;;;;;;;3.92;1.55;;;;;;;;;;509997;29;991;-91
2022/07/11 01:23:03;;;;;;;2.83;1.50;;;;;;;;;;511606;29;1367;-89
2022/07/11 01:23:18;;;;;;;2.92;1.52;;;;;;;;;;512064;29;1122;-89
2022/07/11 01:23:33;;;;;;;4.73;1.73;;;;;;;;;;511954;28;1189;-89
2022/07/11 01:23:50;;;;;;;5.43;1.73;;;;;;;;;;512117;29;900;-88
2022/07/11 01:24:06;;;;;;;4.18;1.60;;;;;;;;;;512072;28;1272;-88
2022/07/11 01:24:22;;;;;;;2.78;1.55;;;;;;;;;;511779;28;1503;-88
2022/07/11 01:24:37;;;;;;;2.13;1.50;;;;;;;;;;512201;29;984;-89
2022/07/11 01:24:56;;;;;;;1.67;1.30;;;;;;;;;;512204;29;825;-88
2022/07/11 01:25:29;;;;;;;2.63;1.40;;;;;;;;;;513569;28;1301;-89
2022/07/11 01:25:45;;;;;;;2.92;1.40;;;;;;;;;;508136;29;1253;-89
2022/07/11 01:26:00;;;;;;;3.20;1.30;;;;;;;;;;510142;29;1316;-88
2022/07/11 01:26:17;;;;;;;3.27;1.40;;;;;;;;;;511355;29;896;-89
2022/07/11 01:26:34;;;;;;;2.40;1.40;;;;;;;;;;512404;29;849;-89
2022/07/11 01:26:51;;;;;;;2.90;1.55;;;;;;;;;;511329;29;1704;-89
2022/07/11 01:27:07;;;;;;;5.20;1.77;;;;;;;;;;510674;29;1266;-88
2022/07/11 01:27:22;;;;;;;4.28;1.70;;;;;;;;;;510012;29;1321;-88
2022/07/11 01:27:38;;;;;;;2.63;1.53;;;;;;;;;;509869;29;1229;-89
2022/07/11 01:27:54;;;;;;;2.90;1.50;;;;;;;;;;510278;29;841;-89
2022/07/11 01:28:10;;;;;;;2.95;1.60;;;;;;;;;;510128;29;1279;-89
2022/07/11 01:28:25;;;;;;;3.45;1.60;;;;;;;;;;510205;29;948;-89
2022/07/11 01:28:42;;;;;;;3.03;1.47;;;;;;;;;;508197;29;1290;-89
2022/07/11 01:29:15;;;;;;;3.42;1.55;;;;;;;;;;508279;29;1580;-89
2022/07/11 01:29:31;;;;;;;3.22;1.60;;;;;;;;;;511000;29;1402;-88
2022/07/11 01:29:46;;;;;;;3.33;1.50;;;;;;;;;;511912;29;1411;-90
2022/07/11 01:30:04;;;;;;;2.65;1.33;;;;;;;;;;511267;29;919;-89
2022/07/11 01:30:20;;;;;;;2.03;1.38;;;;;;;;;;509949;29;1391;-89
2022/07/11 01:30:35;;;;;;;2.47;1.40;;;;;;;;;;510005;29;1249;-89
2022/07/11 01:30:51;;;;;;;2.10;1.30;;;;;;;;;;511835;28;1232;-89
2022/07/11 01:31:06;;;;;;;2.53;1.33;;;;;;;;;;511925;29;1277;-89
2022/07/11 01:31:22;;;;;;;2.58;1.30;;;;;;;;;;509817;29;1283;-89
2022/07/11 01:31:38;;;;;;;1.73;1.23;;;;;;;;;;509354;29;1122;-88
2022/07/11 01:31:54;;;;;;;2.03;1.40;;;;;;;;;;508073;29;956;-89
2022/07/11 01:32:09;;;;;;;2.25;1.40;;;;;;;;;;509490;29;1309;-89
2022/07/11 01:32:24;;;;;;;2.60;1.37;;;;;;;;;;507968;29;889;-89
2022/07/11 01:32:40;;;;;;;2.97;1.40;;;;;;;;;;509327;29;1187;-89
2022/07/11 01:32:56;;;;;;;3.80;1.58;;;;;;;;;;509723;29;1347;-89
2022/07/11 01:33:11;;;;;;;4.18;1.60;;;;;;;;;;510336;28;877;-88
2022/07/11 01:33:27;;;;;;;4.07;1.50;;;;;;;;;;511770;29;1279;-88
2022/07/11 01:33:42;;;;;;;3.40;1.47;;;;;;;;;;512027;29;1275;-89
2022/07/11 01:33:58;;;;;;;2.53;1.30;;;;;;;;;;512024;29;948;-89
2022/07/11 01:34:13;;;;;;;2.58;1.38;;;;;;;;;;512225;29;1189;-89
2022/07/11 01:34:29;;;;;;;2.53;1.30;;;;;;;;;;511670;29;1262;-89
2022/07/11 01:34:44;;;;;;;2.30;1.30;;;;;;;;;;509950;29;1202;-89
2022/07/11 01:34:59;;;;;;;2.35;1.50;;;;;;;;;;510039;29;809;-89
2022/07/11 01:35:15;;;;;;;3.03;1.60;;;;;;;;;;510074;29;1303;-89
2022/07/11 01:35:30;;;;;;;2.70;1.50;;;;;;;;;;510171;29;1035;-89
2022/07/11 01:35:45;;;;;;;2.38;1.48;;;;;;;;;;510002;29;888;-89
2022/07/11 01:36:02;;;;;;;3.47;1.50;;;;;;;;;;511928;28;1267;-89
2022/07/11 01:36:17;;;;;;;3.40;1.50;;;;;;;;;;511700;28;1335;-89
2022/07/11 01:36:33;;;;;;;3.00;1.40;;;;;;;;;;508236;29;1224;-89
2022/07/11 01:36:48;;;;;;;3.13;1.40;;;;;;;;;;509766;29;1644;-89
2022/07/11 01:37:04;;;;;;;3.33;1.50;;;;;;;;;;509941;29;1005;-89
2022/07/11 01:37:19;;;;;;;3.53;1.53;;;;;;;;;;508690;29;1177;-89
2022/07/11 01:37:34;;;;;;;3.08;1.45;;;;;;;;;;510037;29;818;-90
2022/07/11 01:37:50;;;;;;;3.37;1.40;;;;;;;;;;507308;29;1919;-89
2022/07/11 01:38:05;;;;;;;3.17;1.40;;;;;;;;;;506367;29;980;-89
2022/07/11 01:38:21;;;;;;;2.83;1.30;;;;;;;;;;508451;29;1309;-89
2022/07/11 01:38:36;;;;;;;2.23;1.30;;;;;;;;;;510034;29;853;-89
2022/07/11 01:38:51;;;;;;;1.90;1.30;;;;;;;;;;509714;29;1265;-88
2022/07/11 01:39:07;;;;;;;2.00;1.30;;;;;;;;;;509658;29;1315;-88
2022/07/11 01:39:22;;;;;;;2.23;1.47;;;;;;;;;;507800;29;1158;-90
2022/07/11 01:39:41;;;;;;;2.63;1.50;;;;;;;;;;507752;29;1451;-89